臺中航空站 - ATIS

METAR RCMQ 250030Z 02017KT 9999 FEW010 SCT025 BKN050 22/18 Q1015 NOSIG RMK A3000=

站台狀態:Online
最後更新:2021-10-25 08:30:01